Time;durP1;ratioP1;P1;durP2;ratioP2;P2;SDS_P1;SDS_P2;PMS_P1;PMS_P2;Temp;Humidity;BMP_temperature;BMP_pressure;BME280_temperature;BME280_humidity;BME280_pressure;Samples;Min_cycle;Max_cycle;Signal;HPM_P1;HPM_P2
2023/07/01 00:01:35;;;;;;;7.45;6.78;;;;;;;17.39;87.48;94708.44;5075236;28;20226;-72
2023/07/01 00:04:03;;;;;;;7.40;6.80;;;;;;;17.26;88.40;94700.72;5070403;28;20252;-70
2023/07/01 00:06:30;;;;;;;7.28;6.70;;;;;;;17.28;88.09;94704.03;5072252;28;20256;-70
2023/07/01 00:08:56;;;;;;;6.85;6.25;;;;;;;17.50;86.95;94697.47;5073175;28;20202;-71
2023/07/01 00:11:23;;;;;;;9.43;7.13;;;;;;;17.42;87.21;94690.25;5071387;28;20291;-71
2023/07/01 00:13:50;;;;;;;9.50;6.43;;;;;;;17.34;87.28;94695.91;5069139;28;20260;-72
2023/07/01 00:16:17;;;;;;;7.30;6.38;;;;;;;17.31;87.66;94700.44;5071836;28;20256;-72
2023/07/01 00:18:45;;;;;;;8.65;6.43;;;;;;;17.28;87.89;94690.34;5077625;28;20201;-72
2023/07/01 00:21:13;;;;;;;7.97;7.28;;;;;;;17.28;88.20;94700.63;5071289;28;20202;-72
2023/07/01 00:23:40;;;;;;;8.02;6.80;;;;;;;17.33;87.79;94706.28;5071885;28;20205;-71
2023/07/01 00:26:07;;;;;;;6.35;5.95;;;;;;;17.52;86.82;94693.88;5072336;28;20261;-70
2023/07/01 00:28:33;;;;;;;10.13;6.72;;;;;;;17.47;87.01;94705.38;5069337;28;20205;-71
2023/07/01 00:31:00;;;;;;;7.55;6.85;;;;;;;17.48;86.83;94695.00;5071730;28;20198;-72
2023/07/01 00:33:27;;;;;;;8.93;7.32;;;;;;;17.37;87.17;94694.88;5071192;28;20233;-69
2023/07/01 00:35:54;;;;;;;7.60;7.05;;;;;;;17.35;88.01;94702.69;5075120;28;20211;-71
2023/07/01 00:38:22;;;;;;;8.00;7.47;;;;;;;17.39;87.53;94698.16;5070919;28;20291;-72
2023/07/01 00:40:48;;;;;;;7.53;6.85;;;;;;;17.35;87.60;94696.72;5071467;28;20233;-71
2023/07/01 00:43:15;;;;;;;7.57;7.10;;;;;;;17.35;88.15;94696.72;5065955;28;20737;-70
2023/07/01 00:45:42;;;;;;;8.18;7.57;;;;;;;17.48;87.80;94689.88;5072044;28;20198;-72
2023/07/01 00:48:13;;;;;;;8.27;7.68;;;;;;;17.51;87.56;94681.97;5071324;28;20247;-71
2023/07/01 00:50:39;;;;;;;8.13;7.47;;;;;;;17.43;87.81;94694.47;5071844;28;20585;-71
2023/07/01 00:53:07;;;;;;;7.93;7.32;;;;;;;17.24;88.77;94686.34;5069491;28;20318;-72
2023/07/01 00:55:35;;;;;;;9.88;7.68;;;;;;;17.20;88.98;94690.03;5070240;28;20209;-71
2023/07/01 00:58:01;;;;;;;8.38;7.68;;;;;;;17.07;89.54;94691.75;5069783;28;20226;-72
2023/07/01 01:00:28;;;;;;;8.07;7.47;;;;;;;17.16;89.62;94691.16;5070209;28;20202;-71
2023/07/01 01:03:00;;;;;;;11.32;9.65;;;;;;;17.14;89.62;94687.84;5064047;28;20195;-72
2023/07/01 01:05:34;;;;;;;13.32;8.65;;;;;;;17.12;89.83;94694.84;5069211;28;20229;-76
2023/07/01 01:08:09;;;;;;;8.48;7.78;;;;;;;17.04;89.80;94692.78;5070429;28;20825;-71
2023/07/01 01:10:42;;;;;;;7.50;7.00;;;;;;;17.05;90.02;94697.00;5069618;28;20722;-72
2023/07/01 01:13:09;;;;;;;8.25;7.75;;;;;;;17.03;89.71;94696.28;5070473;28;20226;-72
2023/07/01 01:15:36;;;;;;;8.68;7.97;;;;;;;17.12;89.09;94685.38;5071631;28;20287;-71
2023/07/01 01:18:05;;;;;;;8.20;7.60;;;;;;;16.95;89.96;94699.31;5070693;28;20261;-73
2023/07/01 01:20:36;;;;;;;7.90;7.40;;;;;;;16.91;90.60;94690.16;5070591;28;20206;-72
2023/07/01 01:23:11;;;;;;;8.50;7.80;;;;;;;16.89;90.81;94686.88;5070763;28;20577;-72
2023/07/01 01:25:44;;;;;;;8.18;7.47;;;;;;;17.15;89.71;94679.22;5070987;28;20588;-72
2023/07/01 01:28:12;;;;;;;7.78;7.28;;;;;;;17.14;89.44;94682.72;5070710;28;20676;-72
2023/07/01 01:30:39;;;;;;;8.15;7.55;;;;;;;17.00;89.52;94689.59;5070379;28;20226;-72
2023/07/01 01:33:06;;;;;;;8.13;7.47;;;;;;;17.15;89.22;94684.38;5068691;28;20262;-72
2023/07/01 01:35:33;;;;;;;7.20;6.60;;;;;;;17.26;87.96;94687.06;5070506;28;20285;-73
2023/07/01 01:38:11;;;;;;;8.02;6.45;;;;;;;17.27;87.54;94681.84;5070447;28;20711;-71
2023/07/01 01:40:41;;;;;;;7.00;6.38;;;;;;;17.29;87.17;94684.31;5069957;28;20206;-71
2023/07/01 01:43:13;;;;;;;6.13;5.82;;;;;;;17.27;86.79;94674.13;5071026;28;20263;-72
2023/07/01 01:45:40;;;;;;;6.00;5.60;;;;;;;17.35;86.44;94676.16;5070776;28;20202;-72
2023/07/01 01:48:07;;;;;;;5.85;5.45;;;;;;;17.34;86.18;94669.38;5069633;28;20321;-71
2023/07/01 01:50:37;;;;;;;6.75;6.25;;;;;;;17.40;85.85;94679.25;5070349;28;20205;-72
2023/07/01 01:53:05;;;;;;;6.32;5.32;;;;;;;17.50;85.49;94674.34;5069881;28;20294;-71
2023/07/01 01:55:34;;;;;;;6.28;5.80;;;;;;;17.43;85.49;94668.78;5071041;28;20230;-71
2023/07/01 01:58:01;;;;;;;6.55;5.95;;;;;;;17.34;85.93;94669.38;5069740;28;20259;-71
2023/07/01 02:00:29;;;;;;;5.80;5.40;;;;;;;17.22;86.19;94660.75;5070503;28;20205;-73
2023/07/01 02:02:56;;;;;;;8.85;6.05;;;;;;;17.27;86.05;94668.16;5070459;28;20197;-73
2023/07/01 02:05:23;;;;;;;6.63;6.20;;;;;;;17.19;86.49;94672.97;5070602;28;20233;-71
2023/07/01 02:07:49;;;;;;;7.80;6.50;;;;;;;17.18;86.92;94667.00;5070111;28;20275;-72
2023/07/01 02:10:16;;;;;;;6.60;6.07;;;;;;;17.19;86.80;94670.41;5068810;28;20241;-71
2023/07/01 02:12:43;;;;;;;6.40;5.90;;;;;;;17.17;86.98;94680.78;5070357;28;20250;-72
2023/07/01 02:15:10;;;;;;;5.68;5.35;;;;;;;17.19;86.66;94667.84;5069799;28;20226;-72
2023/07/01 02:17:38;;;;;;;7.10;5.80;;;;;;;17.20;86.24;94672.06;5070177;28;20568;-73
2023/07/01 02:20:07;;;;;;;7.15;5.72;;;;;;;17.07;86.85;94673.78;5068382;28;20214;-72
2023/07/01 02:22:34;;;;;;;6.15;5.57;;;;;;;17.03;87.06;94675.72;5070018;28;20291;-72
2023/07/01 02:25:00;;;;;;;6.43;5.90;;;;;;;16.97;87.47;94671.00;5069752;28;20230;-73
2023/07/01 02:27:30;;;;;;;6.80;6.15;;;;;;;16.94;87.93;94671.19;5069576;28;20230;-71
2023/07/01 02:29:57;;;;;;;7.55;5.93;;;;;;;17.00;87.28;94666.47;5068549;28;20280;-73
2023/07/01 02:32:23;;;;;;;6.20;5.85;;;;;;;17.00;87.51;94660.53;5070337;28;20229;-72
2023/07/01 02:34:51;;;;;;;6.07;5.68;;;;;;;17.12;86.75;94669.16;5067150;28;20202;-72
2023/07/01 02:37:18;;;;;;;7.38;6.10;;;;;;;17.12;86.41;94676.84;5067127;28;20681;-72
2023/07/01 02:39:46;;;;;;;6.10;5.70;;;;;;;16.99;87.18;94674.28;5069076;28;20203;-72
2023/07/01 02:42:14;;;;;;;5.88;5.30;;;;;;;16.93;87.21;94685.75;5069846;28;20199;-73
2023/07/01 02:44:41;;;;;;;5.70;5.20;;;;;;;16.78;88.09;94684.19;5068259;28;20198;-71
2023/07/01 02:47:08;;;;;;;6.57;5.20;;;;;;;16.86;87.82;94691.38;5069615;28;20221;-71
2023/07/01 02:49:34;;;;;;;6.55;6.05;;;;;;;17.00;86.86;94694.72;5069039;28;20490;-71
2023/07/01 02:52:02;;;;;;;7.25;6.55;;;;;;;16.87;87.54;94690.44;5068909;28;20222;-73
2023/07/01 02:54:29;;;;;;;6.50;6.07;;;;;;;16.88;87.60;94686.97;5069859;28;20339;-72
2023/07/01 02:56:56;;;;;;;6.32;6.03;;;;;;;16.83;87.74;94687.25;5071367;28;20316;-72
2023/07/01 02:59:22;;;;;;;7.85;7.13;;;;;;;16.88;87.62;94694.66;5067595;28;20194;-72
2023/07/01 03:01:49;;;;;;;8.00;6.55;;;;;;;16.91;87.39;94697.88;5067662;28;20206;-73
2023/07/01 03:04:16;;;;;;;6.53;5.60;;;;;;;16.91;87.20;94700.44;5067931;28;20765;-73
2023/07/01 03:06:43;;;;;;;8.38;6.35;;;;;;;16.95;86.85;94701.88;5068491;28;20629;-73
2023/07/01 03:09:11;;;;;;;8.35;6.53;;;;;;;16.99;86.59;94700.78;5068309;28;20332;-72
2023/07/01 03:11:38;;;;;;;7.25;6.57;;;;;;;16.93;86.79;94690.88;5068551;28;20785;-73
2023/07/01 03:14:04;;;;;;;12.57;6.75;;;;;;;16.91;86.92;94691.91;5069180;28;20206;-71
2023/07/01 03:16:31;;;;;;;12.48;6.65;;;;;;;16.81;87.30;94689.13;5070269;28;20198;-70
2023/07/01 03:18:58;;;;;;;6.55;5.95;;;;;;;16.86;87.41;94699.91;5069877;28;20286;-72
2023/07/01 03:21:25;;;;;;;6.25;5.75;;;;;;;16.93;87.17;94693.47;5069702;28;20205;-70
2023/07/01 03:23:52;;;;;;;7.03;6.40;;;;;;;16.96;87.02;94695.00;5070148;28;20222;-72
2023/07/01 03:26:20;;;;;;;7.00;6.07;;;;;;;16.95;86.99;94694.19;5070452;28;20233;-72
2023/07/01 03:28:46;;;;;;;6.18;5.75;;;;;;;17.01;86.56;94692.97;5069263;28;20565;-72
2023/07/01 03:31:13;;;;;;;8.00;5.93;;;;;;;17.02;86.67;94688.66;5069465;28;20237;-72
2023/07/01 03:33:40;;;;;;;7.20;6.50;;;;;;;17.10;86.32;94691.53;5073415;28;20617;-72
2023/07/01 03:36:07;;;;;;;6.60;6.15;;;;;;;17.41;85.70;94680.91;5073528;28;20202;-70
2023/07/01 03:38:33;;;;;;;7.72;5.40;;;;;;;17.85;83.79;94684.84;5073692;28;20198;-72
2023/07/01 03:41:00;;;;;;;6.28;5.80;;;;;;;18.30;81.96;94686.84;5067214;28;20695;-71
2023/07/01 03:43:28;;;;;;;7.38;6.72;;;;;;;18.64;79.96;94694.78;5073705;28;20226;-72
2023/07/01 03:45:55;;;;;;;8.35;7.20;;;;;;;18.90;78.50;94696.31;5073125;28;20241;-73
2023/07/01 03:48:22;;;;;;;6.28;5.78;;;;;;;19.05;77.59;94688.44;5073739;28;20230;-72
2023/07/01 03:50:48;;;;;;;9.00;6.25;;;;;;;19.19;76.87;94683.91;5072270;28;20230;-72
2023/07/01 03:53:15;;;;;;;7.68;6.10;;;;;;;19.28;76.86;94690.97;5073131;28;20246;-72
2023/07/01 03:55:41;;;;;;;7.35;6.63;;;;;;;19.40;75.96;94690.97;5072811;28;20256;-72
2023/07/01 03:58:08;;;;;;;10.55;6.30;;;;;;;19.34;76.21;94702.56;5073153;28;20224;-73
2023/07/01 04:00:36;;;;;;;7.57;6.45;;;;;;;19.34;75.98;94694.84;5072847;28;20202;-73
2023/07/01 04:03:05;;;;;;;7.90;7.20;;;;;;;19.31;76.48;94697.63;5071824;28;20194;-73
2023/07/01 04:05:34;;;;;;;8.82;7.07;;;;;;;19.29;76.12;94697.78;5072660;28;20206;-72
2023/07/01 04:08:01;;;;;;;7.95;6.85;;;;;;;19.19;76.49;94693.38;5073315;28;20236;-71
2023/07/01 04:10:28;;;;;;;9.38;7.22;;;;;;;19.13;76.54;94694.66;5071993;28;20283;-71
2023/07/01 04:12:55;;;;;;;7.15;6.45;;;;;;;19.22;76.45;94700.91;5073288;28;20648;-72
2023/07/01 04:15:22;;;;;;;6.57;6.05;;;;;;;19.45;76.04;94691.47;5072958;28;20269;-71
2023/07/01 04:17:50;;;;;;;7.25;6.43;;;;;;;19.61;74.75;94695.41;5073205;28;20283;-71
2023/07/01 04:20:19;;;;;;;7.10;6.65;;;;;;;19.69;74.31;94700.81;5072726;28;20291;-71
2023/07/01 04:22:46;;;;;;;6.78;6.30;;;;;;;19.77;74.17;94699.41;5072533;28;20236;-71
2023/07/01 04:25:13;;;;;;;8.45;7.18;;;;;;;19.80;74.34;94701.75;5072889;28;20198;-70
2023/07/01 04:27:42;;;;;;;7.20;6.70;;;;;;;19.91;73.95;94687.13;5072415;28;20637;-72
2023/07/01 04:30:12;;;;;;;7.57;6.82;;;;;;;20.26;72.25;94684.41;5072464;28;20202;-71
2023/07/01 04:32:39;;;;;;;7.03;6.53;;;;;;;20.34;72.29;94692.38;5072241;28;20780;-71
2023/07/01 04:35:07;;;;;;;6.95;6.32;;;;;;;20.46;72.17;94689.81;5072646;28;20256;-71
2023/07/01 04:37:34;;;;;;;7.32;6.63;;;;;;;20.55;71.31;94694.25;5072504;28;20956;-71
2023/07/01 04:40:02;;;;;;;8.13;7.32;;;;;;;20.59;70.86;94695.63;5072311;28;20255;-71
2023/07/01 04:42:31;;;;;;;7.28;6.15;;;;;;;20.62;71.71;94680.75;5066448;28;20581;-71
2023/07/01 04:44:58;;;;;;;7.88;7.07;;;;;;;20.87;69.96;94683.94;5070485;28;20222;-70
2023/07/01 04:47:25;;;;;;;7.63;6.90;;;;;;;20.52;69.59;94691.94;5072283;28;20225;-71
2023/07/01 04:49:53;;;;;;;7.70;7.20;;;;;;;20.22;70.83;94688.16;5070700;28;20202;-71
2023/07/01 04:52:22;;;;;;;8.73;7.93;;;;;;;20.21;70.44;94665.06;5072003;28;20672;-71
2023/07/01 04:54:49;;;;;;;8.98;8.32;;;;;;;20.36;69.96;94694.84;5072624;28;20226;-71
2023/07/01 04:57:16;;;;;;;7.22;6.72;;;;;;;20.69;69.23;94699.16;5071748;28;20206;-71
2023/07/01 04:59:43;;;;;;;8.77;7.97;;;;;;;20.48;69.06;94703.44;5071181;28;20222;-71
2023/07/01 05:02:09;;;;;;;15.05;13.55;;;;;;;20.51;69.43;94710.94;5069605;28;20206;-71
2023/07/01 05:04:37;;;;;;;9.57;8.82;;;;;;;20.65;68.66;94716.66;5070095;28;20280;-71
2023/07/01 05:07:04;;;;;;;13.23;11.95;;;;;;;20.89;69.03;94706.13;5069989;28;20230;-72
2023/07/01 05:09:33;;;;;;;10.60;9.32;;;;;;;21.16;68.51;94702.28;5070059;28;20275;-70
2023/07/01 05:11:59;;;;;;;8.95;8.18;;;;;;;21.38;66.84;94709.97;5069788;28;20218;-70
2023/07/01 05:14:26;;;;;;;10.32;9.52;;;;;;;21.39;66.89;94711.59;5070979;28;20250;-71
2023/07/01 05:16:53;;;;;;;11.82;8.75;;;;;;;21.40;67.11;94710.66;5071060;28;20213;-70
2023/07/01 05:19:19;;;;;;;10.32;7.90;;;;;;;21.25;66.43;94709.34;5070126;28;20195;-71
2023/07/01 05:21:50;;;;;;;9.27;8.38;;;;;;;21.33;65.92;94701.75;5068575;28;20225;-70
2023/07/01 05:24:17;;;;;;;9.75;8.75;;;;;;;21.34;66.65;94718.91;5071818;28;20202;-72
2023/07/01 05:26:47;;;;;;;9.02;8.23;;;;;;;21.26;67.45;94714.38;5070755;28;20631;-71
2023/07/01 05:29:14;;;;;;;9.32;8.48;;;;;;;21.36;67.05;94714.44;5071530;28;20765;-71
2023/07/01 05:31:40;;;;;;;10.77;9.45;;;;;;;21.42;67.16;94716.53;5071411;28;20244;-71
2023/07/01 05:34:07;;;;;;;10.65;9.88;;;;;;;21.47;66.97;94711.00;5071926;28;20241;-72
2023/07/01 05:36:34;;;;;;;17.42;15.25;;;;;;;21.61;66.45;94708.06;5066882;28;20662;-71
2023/07/01 05:39:03;;;;;;;10.10;9.30;;;;;;;22.02;64.65;94704.69;5062531;28;20682;-73
2023/07/01 05:41:30;;;;;;;10.32;9.38;;;;;;;22.31;63.53;94715.94;5070891;28;20210;-70
2023/07/01 05:43:58;;;;;;;12.20;9.38;;;;;;;22.56;62.97;94706.91;5071503;28;20683;-71
2023/07/01 05:46:24;;;;;;;8.93;8.32;;;;;;;22.94;61.98;94703.63;5070437;28;20654;-70
2023/07/01 05:48:51;;;;;;;13.75;8.77;;;;;;;23.49;59.84;94708.25;5071467;28;20237;-70
2023/07/01 05:51:17;;;;;;;8.95;8.27;;;;;;;24.13;57.86;94708.41;5070505;28;20304;-70
2023/07/01 05:53:46;;;;;;;9.13;8.52;;;;;;;25.25;55.25;94696.88;5070548;28;20261;-71
2023/07/01 05:56:12;;;;;;;9.10;8.07;;;;;;;26.57;50.58;94697.59;5070149;28;20747;-70
2023/07/01 05:58:39;;;;;;;8.65;7.93;;;;;;;27.38;47.70;94703.03;5071099;28;20217;-71
2023/07/01 06:01:07;;;;;;;7.68;7.07;;;;;;;27.78;46.60;94705.66;5070156;28;20203;-72
2023/07/01 06:03:34;;;;;;;8.20;7.47;;;;;;;28.32;44.86;94705.09;5070621;28;20206;-72
2023/07/01 06:06:01;;;;;;;9.20;7.95;;;;;;;28.35;44.73;94715.22;5070888;28;20663;-72
2023/07/01 06:08:28;;;;;;;10.70;8.63;;;;;;;28.09;45.14;94716.22;5070379;28;20214;-73
2023/07/01 06:10:54;;;;;;;7.78;7.10;;;;;;;28.03;44.98;94711.66;5070416;28;20234;-72
2023/07/01 06:13:21;;;;;;;7.32;6.78;;;;;;;29.02;43.41;94712.97;5070433;28;20299;-70
2023/07/01 06:15:48;;;;;;;14.98;9.23;;;;;;;29.86;41.75;94711.25;5070923;28;20305;-71
2023/07/01 06:18:16;;;;;;;13.10;9.23;;;;;;;30.53;41.07;94703.38;5071121;28;20202;-72
2023/07/01 06:20:43;;;;;;;18.83;16.17;;;;;;;31.56;38.98;94706.59;5070513;28;20259;-71
2023/07/01 06:23:10;;;;;;;32.58;26.13;;;;;;;33.07;35.57;94695.47;5070479;28;20277;-73
2023/07/01 06:25:37;;;;;;;20.38;16.88;;;;;;;34.74;32.61;94694.25;5070408;28;20742;-72
2023/07/01 06:28:04;;;;;;;9.32;8.40;;;;;;;36.80;29.63;94691.78;5070269;28;20230;-73
2023/07/01 06:30:31;;;;;;;8.10;7.03;;;;;;;38.74;26.66;94691.03;5070303;28;20206;-71
2023/07/01 06:32:57;;;;;;;8.15;6.43;;;;;;;40.35;25.01;94691.53;5069892;28;20585;-72
2023/07/01 06:35:26;;;;;;;9.23;8.32;;;;;;;41.62;23.15;94682.41;5070375;28;20202;-71
2023/07/01 06:37:52;;;;;;;15.65;13.98;;;;;;;42.43;22.09;94691.06;5069538;28;20229;-74
2023/07/01 06:40:19;;;;;;;8.25;7.55;;;;;;;42.88;21.43;94689.72;5069895;28;20198;-73
2023/07/01 06:42:46;;;;;;;7.40;6.80;;;;;;;43.54;20.66;94679.22;5071281;28;20278;-74
2023/07/01 06:45:12;;;;;;;6.95;6.30;;;;;;;44.14;20.14;94677.66;5068530;28;20706;-73
2023/07/01 06:47:40;;;;;;;10.05;6.47;;;;;;;44.63;19.62;94677.03;5070235;28;20202;-73
2023/07/01 06:50:08;;;;;;;9.25;6.80;;;;;;;45.08;19.24;94671.50;5068801;28;20206;-73
2023/07/01 06:52:36;;;;;;;8.77;5.85;;;;;;;45.30;18.35;94670.31;5069508;28;20238;-71
2023/07/01 06:55:03;;;;;;;9.27;6.50;;;;;;;45.72;19.22;94681.34;5070026;28;20716;-70
2023/07/01 06:57:31;;;;;;;5.75;5.35;;;;;;;46.35;17.80;94673.31;5069317;28;20246;-70
2023/07/01 06:59:57;;;;;;;6.05;5.53;;;;;;;45.60;18.66;94670.16;5069763;28;20217;-71
2023/07/01 07:02:24;;;;;;;6.75;6.35;;;;;;;45.68;18.51;94674.13;5058756;28;20206;-70
2023/07/01 07:04:52;;;;;;;8.95;5.75;;;;;;;46.05;18.37;94663.63;5052950;28;20267;-70
2023/07/01 07:07:18;;;;;;;6.15;5.68;;;;;;;46.73;17.23;94665.41;5039318;28;20977;-71
2023/07/01 07:09:46;;;;;;;7.28;5.55;;;;;;;47.13;17.06;94666.78;5061601;28;20283;-69
2023/07/01 07:12:13;;;;;;;8.55;5.53;;;;;;;47.27;17.02;94656.13;5063127;28;20663;-72
2023/07/01 07:14:40;;;;;;;7.00;5.40;;;;;;;47.82;16.58;94654.50;5064270;28;20245;-71
2023/07/01 07:17:07;;;;;;;5.38;4.90;;;;;;;48.16;16.36;94646.13;5064713;28;20244;-71
2023/07/01 07:19:34;;;;;;;20.80;19.02;;;;;;;48.72;16.44;94637.00;5065261;28;20281;-69
2023/07/01 07:22:01;;;;;;;5.65;5.15;;;;;;;48.99;15.74;94637.00;5064696;28;20201;-70
2023/07/01 07:24:27;;;;;;;8.68;5.70;;;;;;;49.13;15.77;94636.16;5065874;28;20639;-73
2023/07/01 07:26:57;;;;;;;5.72;5.32;;;;;;;49.43;14.97;94640.88;5064990;28;20632;-71
2023/07/01 07:29:24;;;;;;;5.18;4.72;;;;;;;49.63;15.24;94643.13;5064278;28;20590;-71
2023/07/01 07:31:51;;;;;;;4.70;4.30;;;;;;;49.79;15.27;94640.06;5063473;28;20682;-70
2023/07/01 07:34:18;;;;;;;5.45;5.15;;;;;;;49.63;14.39;94632.34;5064211;28;20270;-70
2023/07/01 07:36:44;;;;;;;6.55;6.18;;;;;;;49.24;15.14;94640.25;5064033;28;20225;-69
2023/07/01 07:39:12;;;;;;;18.80;17.13;;;;;;;49.13;15.04;94630.75;5065521;28;20754;-70
2023/07/01 07:41:39;;;;;;;5.65;5.32;;;;;;;49.04;15.30;94639.56;5064532;28;20202;-74
2023/07/01 07:44:07;;;;;;;5.45;5.15;;;;;;;49.60;15.32;94630.25;5065890;28;20202;-74
2023/07/01 07:46:34;;;;;;;5.53;5.03;;;;;;;50.04;15.12;94624.00;5065894;28;20679;-75
2023/07/01 07:49:01;;;;;;;6.63;5.90;;;;;;;49.58;14.55;94610.84;5064697;28;20194;-76
2023/07/01 07:51:27;;;;;;;5.43;5.03;;;;;;;48.76;15.70;94624.50;5066061;28;20225;-76
2023/07/01 07:53:54;;;;;;;5.40;4.88;;;;;;;48.77;16.09;94620.69;5064012;28;20218;-75
2023/07/01 07:56:21;;;;;;;5.45;4.68;;;;;;;49.11;15.65;94627.56;5064117;28;20742;-74
2023/07/01 07:58:48;;;;;;;5.32;5.13;;;;;;;48.74;15.53;94624.00;5064278;28;20259;-77
2023/07/01 08:01:16;;;;;;;7.18;5.13;;;;;;;48.61;15.31;94624.81;5063493;28;20202;-76
2023/07/01 08:03:43;;;;;;;7.38;6.57;;;;;;;47.35;16.39;94625.84;5064803;28;20229;-77
2023/07/01 08:06:09;;;;;;;7.68;4.93;;;;;;;46.99;16.97;94623.66;5059719;28;20229;-76
2023/07/01 08:08:36;;;;;;;5.35;4.78;;;;;;;48.11;16.52;94615.75;5063431;28;20267;-74
2023/07/01 08:11:03;;;;;;;5.03;4.65;;;;;;;49.21;14.87;94611.19;5065733;28;20642;-73
2023/07/01 08:13:30;;;;;;;4.82;4.38;;;;;;;48.03;15.64;94614.53;5064481;28;20206;-69
2023/07/01 08:15:57;;;;;;;5.60;5.13;;;;;;;47.87;15.52;94605.13;5064543;28;20211;-69
2023/07/01 08:18:25;;;;;;;5.25;4.90;;;;;;;47.91;15.38;94606.16;5066284;28;20284;-69
2023/07/01 08:20:52;;;;;;;5.47;5.10;;;;;;;46.42;16.47;94603.91;5067234;28;20203;-69
2023/07/01 08:23:19;;;;;;;6.38;5.13;;;;;;;45.08;17.81;94609.81;5067693;28;20241;-69
2023/07/01 08:25:46;;;;;;;7.78;4.95;;;;;;;44.88;17.32;94599.19;5066620;28;20695;-70
2023/07/01 08:28:12;;;;;;;14.82;13.63;;;;;;;45.62;17.99;94598.19;5067894;28;20199;-68
2023/07/01 08:30:39;;;;;;;6.05;5.75;;;;;;;45.03;17.38;94571.50;5067673;28;20202;-65
2023/07/01 08:33:06;;;;;;;5.03;4.65;;;;;;;45.16;17.49;94599.56;5068084;28;20267;-69
2023/07/01 08:35:34;;;;;;;6.07;5.57;;;;;;;45.96;16.88;94600.09;5068104;28;20324;-68
2023/07/01 08:38:00;;;;;;;6.95;5.65;;;;;;;46.50;16.71;94594.41;5067486;28;20721;-68
2023/07/01 08:40:27;;;;;;;5.28;4.57;;;;;;;45.62;17.28;94600.88;5066022;28;20205;-68
2023/07/01 08:43:00;;;;;;;5.38;4.97;;;;;;;44.56;17.80;94593.44;5064884;28;20760;-67
2023/07/01 08:45:28;;;;;;;5.38;5.07;;;;;;;44.57;17.96;94589.66;5063987;28;20276;-68
2023/07/01 08:47:58;;;;;;;5.00;4.70;;;;;;;45.59;17.47;94589.91;5066220;28;20198;-68
2023/07/01 08:50:26;;;;;;;7.13;6.72;;;;;;;45.53;17.61;94582.97;5064983;28;20703;-68
2023/07/01 08:53:06;;;;;;;5.57;5.28;;;;;;;46.15;17.10;94589.41;5062266;28;20677;-68
2023/07/01 08:55:34;;;;;;;4.90;4.60;;;;;;;45.92;16.01;94580.22;5063032;28;20653;-68
2023/07/01 08:58:01;;;;;;;6.15;5.45;;;;;;;45.40;16.80;94576.34;5065402;28;20195;-68
2023/07/01 09:00:29;;;;;;;6.53;5.50;;;;;;;45.21;17.31;94583.47;5066607;28;20226;-68
2023/07/01 09:02:57;;;;;;;5.82;5.40;;;;;;;44.70;17.29;94581.03;5065395;28;20203;-68
2023/07/01 09:05:23;;;;;;;4.30;4.10;;;;;;;43.48;18.52;94572.44;5067573;28;20202;-70
2023/07/01 09:07:50;;;;;;;5.80;5.40;;;;;;;44.56;17.93;94570.09;5065991;28;20672;-68
2023/07/01 09:10:19;;;;;;;5.75;5.25;;;;;;;46.08;17.22;94568.25;5067537;28;20238;-69
2023/07/01 09:12:46;;;;;;;5.38;5.07;;;;;;;46.08;16.78;94566.34;5068577;28;20252;-69
2023/07/01 09:15:13;;;;;;;6.03;5.25;;;;;;;45.91;17.42;94562.50;5067063;28;20283;-68
2023/07/01 09:17:41;;;;;;;5.15;4.85;;;;;;;45.60;17.23;94565.47;5066786;28;20271;-70
2023/07/01 09:20:09;;;;;;;8.25;7.10;;;;;;;44.22;17.90;94556.56;5067772;28;20233;-65
2023/07/01 09:22:38;;;;;;;5.88;5.57;;;;;;;42.44;19.93;94548.44;5067845;28;20275;-69
2023/07/01 09:25:05;;;;;;;5.65;4.75;;;;;;;41.63;20.84;94549.81;5067259;28;20199;-66
2023/07/01 09:27:42;;;;;;;6.75;4.80;;;;;;;40.76;21.77;94545.56;5065171;28;20650;-66
2023/07/01 09:30:25;;;;;;;5.18;4.45;;;;;;;39.44;22.51;94543.75;5066741;28;20294;-68
2023/07/01 09:32:51;;;;;;;5.43;5.03;;;;;;;39.37;23.71;94537.78;5065646;28;20207;-68
2023/07/01 09:35:18;;;;;;;5.75;5.32;;;;;;;38.07;23.77;94530.59;5067995;28;20287;-66
2023/07/01 09:37:45;;;;;;;5.20;4.85;;;;;;;37.88;24.67;94531.75;5064878;28;20202;-67
2023/07/01 09:40:20;;;;;;;5.10;4.70;;;;;;;36.95;25.27;94537.75;5066661;28;20708;-67
2023/07/01 09:42:57;;;;;;;9.27;7.63;;;;;;;36.47;26.22;94523.53;5067189;28;20291;-67
2023/07/01 09:45:23;;;;;;;5.82;5.25;;;;;;;35.21;27.98;94520.53;5065130;28;20198;-68
2023/07/01 09:47:52;;;;;;;5.65;5.05;;;;;;;33.87;30.07;94525.09;5065298;28;20206;-68
2023/07/01 09:50:23;;;;;;;7.75;5.50;;;;;;;32.52;32.78;94522.81;5065473;28;20237;-68
2023/07/01 09:52:52;;;;;;;6.45;5.95;;;;;;;32.03;33.58;94529.88;5066431;28;20219;-69
2023/07/01 09:55:19;;;;;;;5.43;4.93;;;;;;;31.27;35.57;94515.06;5066527;28;20254;-69
2023/07/01 09:57:46;;;;;;;8.68;6.80;;;;;;;30.94;38.37;94518.19;5065096;28;20629;-68
2023/07/01 10:00:16;;;;;;;5.00;4.57;;;;;;;30.12;38.66;94509.91;5066407;28;20249;-68
2023/07/01 10:02:44;;;;;;;8.45;7.60;;;;;;;29.76;40.58;94510.63;5065183;28;20210;-68
2023/07/01 10:05:12;;;;;;;8.65;7.55;;;;;;;29.57;40.01;94508.56;5065855;28;21591;-67
2023/07/01 10:07:39;;;;;;;7.95;7.45;;;;;;;29.69;40.74;94507.13;5065198;28;20198;-67
2023/07/01 10:10:11;;;;;;;10.02;8.82;;;;;;;29.60;40.74;94508.22;5066046;28;20664;-69
2023/07/01 10:12:39;;;;;;;9.55;8.75;;;;;;;29.64;40.91;94504.25;5067083;28;20202;-69
2023/07/01 10:15:09;;;;;;;6.72;6.15;;;;;;;29.79;41.30;94502.41;5066089;28;20295;-68
2023/07/01 10:17:47;;;;;;;7.22;6.60;;;;;;;29.99;41.37;94494.00;5063828;28;20218;-68
2023/07/01 10:20:28;;;;;;;5.97;5.57;;;;;;;29.74;39.55;94483.81;5066621;28;20343;-67
2023/07/01 10:22:56;;;;;;;8.05;7.10;;;;;;;29.35;41.07;94464.94;5067059;28;20327;-69
2023/07/01 10:25:30;;;;;;;7.22;6.60;;;;;;;29.37;41.46;94481.28;5065837;28;20646;-68
2023/07/01 10:28:15;;;;;;;5.45;5.03;;;;;;;29.43;42.40;94485.84;5065216;28;20209;-68
2023/07/01 10:31:13;;;;;;;5.78;5.18;;;;;;;29.36;42.29;94471.81;5066359;28;20210;-67
2023/07/01 10:33:57;;;;;;;8.38;7.68;;;;;;;29.27;42.49;94475.47;5066466;28;20209;-66
2023/07/01 10:36:25;;;;;;;7.43;5.72;;;;;;;29.01;41.48;94479.34;5066825;28;20304;-67
2023/07/01 10:38:52;;;;;;;5.78;5.28;;;;;;;28.78;43.47;94474.13;5065475;28;20198;-67
2023/07/01 10:41:53;;;;;;;5.75;5.32;;;;;;;28.68;44.04;94475.38;5064698;28;20211;-67
2023/07/01 10:44:24;;;;;;;6.03;5.63;;;;;;;28.63;42.94;94460.19;5063832;28;20206;-66
2023/07/01 10:47:14;;;;;;;7.28;5.90;;;;;;;28.65;43.29;94475.72;5065043;28;20285;-67
2023/07/01 10:50:07;;;;;;;5.88;5.30;;;;;;;28.57;41.84;94462.69;5065124;28;20672;-66
2023/07/01 10:52:49;;;;;;;6.05;5.60;;;;;;;28.31;42.61;94448.19;5065801;28;20294;-66
2023/07/01 10:55:36;;;;;;;6.05;5.53;;;;;;;28.37;43.69;94463.16;5065817;28;20245;-64
2023/07/01 10:58:21;;;;;;;6.13;5.72;;;;;;;28.37;44.41;94468.41;5065532;28;20627;-67
2023/07/01 11:00:48;;;;;;;6.10;5.65;;;;;;;28.50;42.58;94454.72;5065407;28;20202;-68
2023/07/01 11:03:56;;;;;;;7.63;5.90;;;;;;;28.61;42.40;94445.69;5066051;28;20298;-67
2023/07/01 11:06:24;;;;;;;6.55;5.97;;;;;;;28.73;43.13;94446.84;5064730;28;20893;-68
2023/07/01 11:08:52;;;;;;;7.10;6.45;;;;;;;28.90;44.09;94450.19;5063475;28;20285;-67
2023/07/01 11:11:22;;;;;;;6.65;6.25;;;;;;;28.94;42.95;94439.19;5064338;28;20234;-69
2023/07/01 11:14:06;;;;;;;6.28;5.85;;;;;;;28.86;41.83;94457.59;5063180;28;20198;-68
2023/07/01 11:16:33;;;;;;;7.85;7.00;;;;;;;28.67;42.43;94429.28;5064520;28;20210;-69
2023/07/01 11:19:03;;;;;;;7.32;6.72;;;;;;;28.76;42.92;94442.09;5063738;28;20638;-69
2023/07/01 11:21:32;;;;;;;6.05;5.63;;;;;;;28.69;41.97;94437.78;5065290;28;20210;-67
2023/07/01 11:24:00;;;;;;;7.22;6.50;;;;;;;28.37;43.89;94437.03;5066211;28;20319;-69
2023/07/01 11:26:30;;;;;;;7.15;6.50;;;;;;;28.20;44.20;94446.00;5065222;28;20244;-68
2023/07/01 11:28:57;;;;;;;7.43;6.60;;;;;;;27.97;44.78;94445.91;5065363;28;20664;-67
2023/07/01 11:31:25;;;;;;;6.55;6.15;;;;;;;27.94;44.94;94435.03;5066236;28;20255;-68
2023/07/01 11:33:54;;;;;;;6.00;5.50;;;;;;;28.09;44.84;94435.91;5066238;28;20221;-69
2023/07/01 11:36:34;;;;;;;6.55;6.00;;;;;;;28.37;43.89;94434.44;5065905;28;20231;-69
2023/07/01 11:39:04;;;;;;;6.95;6.45;;;;;;;28.56;43.51;94432.31;5062605;28;20285;-69